Time;durP1;ratioP1;P1;durP2;ratioP2;P2;SDS_P1;SDS_P2;PMS_P1;PMS_P2;Temp;Humidity;BMP_temperature;BMP_pressure;BME280_temperature;BME280_humidity;BME280_pressure;Samples;Min_cycle;Max_cycle;Signal;HPM_P1;HPM_P2
2022/02/24 00:00:24;;;;;;;;;;;;;;;3.66;91.74;100131.56;5051201;28;1886;-59
2022/02/24 00:02:52;;;;;;;;;;;;;;;3.64;92.46;100133.84;5051326;28;862;-59
2022/02/24 00:05:18;;;;;;;;;;;;;;;3.65;91.44;100135.47;5051107;28;898;-59
2022/02/24 00:07:44;;;;;;;;;;;;;;;3.63;91.59;100129.56;5051126;28;831;-59
2022/02/24 00:10:12;;;;;;;;;;;;;;;3.63;92.11;100135.81;5051180;28;889;-59
2022/02/24 00:12:39;;;;;;;;;;;;;;;3.63;92.19;100140.47;5051220;28;823;-59
2022/02/24 00:15:06;;;;;;;;;;;;;;;3.62;92.25;100133.41;5051083;28;813;-59
2022/02/24 00:17:33;;;;;;;;;;;;;;;3.61;91.86;100127.16;5051332;28;987;-59
2022/02/24 00:20:01;;;;;;;;;;;;;;;3.61;92.51;100126.38;5051038;28;1894;-59
2022/02/24 00:22:27;;;;;;;;;;;;;;;3.62;92.63;100120.53;5049741;28;899;-59
2022/02/24 00:24:54;;;;;;;;;;;;;;;3.54;91.79;100126.16;5050961;28;851;-59
2022/02/24 00:27:21;;;;;;;;;;;;;;;3.52;91.74;100126.50;5051259;28;858;-59
2022/02/24 00:29:47;;;;;;;;;;;;;;;3.52;91.49;100120.22;5050932;28;819;-59
2022/02/24 00:32:13;;;;;;;;;;;;;;;3.47;91.59;100122.06;5050972;28;870;-59
2022/02/24 00:34:40;;;;;;;;;;;;;;;3.44;92.42;100117.31;5050647;28;1281;-60
2022/02/24 00:37:06;;;;;;;;;;;;;;;3.39;90.76;100120.28;5051215;28;807;-60
2022/02/24 00:39:33;;;;;;;;;;;;;;;3.36;90.53;100115.50;5050820;28;1914;-60
2022/02/24 00:41:59;;;;;;;;;;;;;;;3.40;91.52;100115.63;5050814;28;826;-60
2022/02/24 00:44:26;;;;;;;;;;;;;;;3.39;91.29;100114.81;5050814;28;839;-60
2022/02/24 00:46:53;;;;;;;;;;;;;;;3.38;91.57;100126.88;5050770;28;799;-60
2022/02/24 00:49:20;;;;;;;;;;;;;;;3.38;91.98;100124.16;5051042;28;897;-59
2022/02/24 00:51:47;;;;;;;;;;;;;;;3.38;92.11;100121.41;5051084;28;858;-60
2022/02/24 00:54:14;;;;;;;;;;;;;;;3.39;92.10;100117.56;5050950;28;895;-59
2022/02/24 00:56:40;;;;;;;;;;;;;;;3.38;91.74;100118.69;5053004;28;1306;-59
2022/02/24 00:59:06;;;;;;;;;;;;;;;3.36;90.55;100120.19;5054470;28;1886;-59
2022/02/24 01:01:32;;;;;;;;;;;;;;;3.36;90.68;100111.97;5054255;28;857;-59
2022/02/24 01:03:59;;;;;;;;;;;;;;;3.34;90.15;100114.25;5054259;28;865;-59
2022/02/24 01:06:25;;;;;;;;;;;;;;;3.35;90.25;100118.56;5054053;28;853;-59
2022/02/24 01:08:51;;;;;;;;;;;;;;;3.34;90.48;100108.81;5052862;28;1177;-59
2022/02/24 01:11:17;;;;;;;;;;;;;;;3.33;89.75;100116.19;5054054;28;870;-59
2022/02/24 01:13:44;;;;;;;;;;;;;;;3.32;89.87;100111.88;5054275;28;889;-59
2022/02/24 01:16:10;;;;;;;;;;;;;;;3.28;89.64;100103.56;5054257;28;1035;-59
2022/02/24 01:18:37;;;;;;;;;;;;;;;3.24;90.24;100113.63;5053893;28;1009;-59
2022/02/24 01:21:03;;;;;;;;;;;;;;;3.21;90.76;100108.03;5053946;28;1890;-59
2022/02/24 01:23:31;;;;;;;;;;;;;;;3.17;91.36;100113.38;5053886;28;827;-59
2022/02/24 01:38:39;;;;;;;;;;;;;;;3.16;94.20;100114.53;5046494;28;1180;-59
2022/02/24 01:41:06;;;;;;;;;;;;;;;3.14;94.65;100119.53;5053488;28;1960;-59
2022/02/24 01:43:33;;;;;;;;;;;;;;;3.17;95.28;100115.31;5053684;28;909;-59
2022/02/24 01:46:01;;;;;;;;;;;;;;;3.12;95.02;100110.13;5053486;28;815;-58
2022/02/24 01:48:29;;;;;;;;;;;;;;;3.09;94.55;100116.25;5053294;28;803;-58
2022/02/24 02:03:15;;;;;;;;;;;;;;;3.00;95.46;100098.06;5053278;28;582;-59
2022/02/24 02:05:42;;;;;;;;;;;;;;;2.99;96.20;100099.19;5052623;28;791;-59
2022/02/24 02:08:09;;;;;;;;;;;;;;;2.97;96.46;100104.22;5053004;28;831;-60
2022/02/24 02:10:35;;;;;;;;;;;;;;;2.96;96.24;100110.78;5052912;28;858;-60
2022/02/24 02:13:01;;;;;;;;;;;;;;;2.96;96.83;100108.06;5053189;28;814;-60
2022/02/24 02:15:27;;;;;;;;;;;;;;;2.97;96.84;100097.97;5052870;28;855;-60
2022/02/24 02:17:54;;;;;;;;;;;;;;;2.98;96.58;100113.97;5068151;28;1010;-60
2022/02/24 02:20:21;;;;;;;;;;;;;;;2.99;96.94;100106.59;5052635;28;1965;-60
2022/02/24 02:22:51;;;;;;;;;;;;;;;2.99;96.96;100121.06;5052695;28;916;-60
2022/02/24 02:25:20;;;;;;;;;;;;;;;3.02;96.98;100120.34;5052681;28;858;-59
2022/02/24 02:27:48;;;;;;;;;;;;;;;3.03;97.45;100123.88;5052613;28;796;-60
2022/02/24 02:30:15;;;;;;;;;;;;;;;2.99;97.71;100117.53;5053005;28;858;-60
2022/02/24 02:32:40;;;;;;;;;;;;;;;2.96;97.89;100119.00;5052920;28;795;-59
2022/02/24 02:35:08;;;;;;;;;;;;;;;2.95;97.76;100122.88;5052412;28;877;-59
2022/02/24 02:37:34;;;;;;;;;;;;;;;2.89;97.41;100124.25;5052171;28;1263;-60
2022/02/24 02:40:01;;;;;;;;;;;;;;;2.85;97.07;100123.34;5051057;28;1914;-60
2022/02/24 02:42:50;;;;;;;;;;;;;;;2.82;97.55;100126.75;5052341;28;982;-59
2022/02/24 02:45:17;;;;;;;;;;;;;;;2.74;97.36;100127.66;5052279;28;850;-60
2022/02/24 02:47:44;;;;;;;;;;;;;;;2.66;97.66;100132.09;5052158;28;890;-60
2022/02/24 02:50:11;;;;;;;;;;;;;;;2.62;97.68;100131.19;5052464;28;878;-60
2022/02/24 02:52:38;;;;;;;;;;;;;;;2.56;97.38;100125.16;5052435;28;811;-61
2022/02/24 02:55:06;;;;;;;;;;;;;;;2.54;97.22;100123.91;5052668;28;768;-61
2022/02/24 02:57:33;;;;;;;;;;;;;;;2.45;97.66;100132.19;5052927;28;752;-61
2022/02/24 03:00:02;;;;;;;;;;;;;;;2.38;96.79;100131.97;5052477;28;1890;-61
2022/02/24 03:02:28;;;;;;;;;;;;;;;2.33;96.87;100132.97;5052146;28;901;-62
2022/02/24 03:04:55;;;;;;;;;;;;;;;2.29;97.06;100120.38;5052149;28;878;-62
2022/02/24 03:07:22;;;;;;;;;;;;;;;2.24;97.19;100135.81;5052503;28;822;-63
2022/02/24 03:09:49;;;;;;;;;;;;;;;2.21;98.08;100127.50;5052151;28;885;-65
2022/02/24 03:12:16;;;;;;;;;;;;;;;2.20;97.63;100125.91;5052079;28;862;-66
2022/02/24 03:14:43;;;;;;;;;;;;;;;2.16;98.22;100131.25;5052023;28;814;-67
2022/02/24 03:17:09;;;;;;;;;;;;;;;2.16;97.93;100125.78;5049915;28;1208;-69
2022/02/24 03:19:36;;;;;;;;;;;;;;;2.17;98.38;100121.91;5051738;28;1889;-69
2022/02/24 03:22:06;;;;;;;;;;;;;;;2.18;98.39;100126.25;5051808;28;1263;-68
2022/02/24 03:24:31;;;;;;;;;;;;;;;2.19;97.58;100132.50;5051721;28;859;-66
2022/02/24 03:26:58;;;;;;;;;;;;;;;2.20;97.78;100125.91;5051818;28;867;-65
2022/02/24 03:29:25;;;;;;;;;;;;;;;2.20;97.40;100132.16;5051867;28;803;-65
2022/02/24 03:31:52;;;;;;;;;;;;;;;2.19;97.76;100122.38;5051695;28;835;-64
2022/02/24 03:34:18;;;;;;;;;;;;;;;2.20;97.76;100123.97;5052029;28;784;-63
2022/02/24 03:36:44;;;;;;;;;;;;;;;2.22;97.75;100127.16;5051255;28;1363;-63
2022/02/24 03:39:11;;;;;;;;;;;;;;;2.23;97.80;100115.13;5051427;28;1975;-62
2022/02/24 03:41:37;;;;;;;;;;;;;;;2.27;97.47;100139.00;5051395;28;981;-60
2022/02/24 03:44:04;;;;;;;;;;;;;;;2.27;98.07;100117.97;5051431;28;878;-60
2022/02/24 03:46:30;;;;;;;;;;;;;;;2.30;97.42;100130.13;5051413;28;807;-60
2022/02/24 03:48:57;;;;;;;;;;;;;;;2.35;97.29;100136.16;5051380;28;811;-60
2022/02/24 03:51:23;;;;;;;;;;;;;;;2.39;96.42;100131.63;5051262;28;799;-60
2022/02/24 03:53:50;;;;;;;;;;;;;;;2.42;96.96;100130.16;5051344;28;878;-60
2022/02/24 03:56:16;;;;;;;;;;;;;;;2.41;96.76;100123.09;5051273;28;795;-60
2022/02/24 03:58:43;;;;;;;;;;;;;;;2.48;97.69;100131.53;5051291;28;894;-60
2022/02/24 04:01:09;;;;;;;;;;;;;;;2.51;96.45;100125.38;5051111;28;1885;-60
2022/02/24 04:03:35;;;;;;;;;;;;;;;2.54;97.23;100129.34;5051226;28;799;-61
2022/02/24 04:06:01;;;;;;;;;;;;;;;2.57;96.24;100128.69;5051144;28;792;-60
2022/02/24 04:08:27;;;;;;;;;;;;;;;2.58;96.99;100124.81;5051155;28;822;-60
2022/02/24 04:10:55;;;;;;;;;;;;;;;2.54;97.46;100124.72;5051424;28;867;-61
2022/02/24 04:13:20;;;;;;;;;;;;;;;2.55;97.43;100128.22;5050995;28;914;-60
2022/02/24 04:15:47;;;;;;;;;;;;;;;2.55;97.91;100133.69;5051074;28;945;-61
2022/02/24 04:18:13;;;;;;;;;;;;;;;2.55;97.80;100136.41;5051511;28;1012;-60
2022/02/24 04:20:40;;;;;;;;;;;;;;;2.54;98.25;100135.63;5051019;28;1957;-61
2022/02/24 04:23:07;;;;;;;;;;;;;;;2.57;97.83;100142.31;5050988;28;895;-60
2022/02/24 04:25:33;;;;;;;;;;;;;;;2.57;98.32;100134.16;5051068;28;871;-60
2022/02/24 04:28:00;;;;;;;;;;;;;;;2.60;98.73;100126.09;5051017;28;836;-60
2022/02/24 04:30:26;;;;;;;;;;;;;;;2.60;98.54;100139.72;5054728;28;804;-60
2022/02/24 04:32:53;;;;;;;;;;;;;;;2.60;98.77;100144.38;5054673;28;889;-60
2022/02/24 04:35:19;;;;;;;;;;;;;;;2.63;98.26;100133.56;5054956;28;863;-60
2022/02/24 04:37:46;;;;;;;;;;;;;;;2.63;99.11;100141.75;5054510;28;1245;-61
2022/02/24 04:40:15;;;;;;;;;;;;;;;2.63;98.81;100147.22;5054628;28;1922;-60
2022/02/24 04:42:41;;;;;;;;;;;;;;;2.64;98.66;100146.06;5069993;28;812;-60
2022/02/24 04:45:08;;;;;;;;;;;;;;;2.66;98.75;100154.72;5054554;28;807;-59
2022/02/24 04:47:33;;;;;;;;;;;;;;;2.71;98.58;100139.25;5054599;28;821;-60
2022/02/24 04:49:59;;;;;;;;;;;;;;;2.74;98.50;100153.03;5054739;28;838;-60
2022/02/24 04:52:26;;;;;;;;;;;;;;;2.76;98.63;100155.41;5054817;28;874;-60
2022/02/24 04:54:52;;;;;;;;;;;;;;;2.79;98.67;100165.66;5054314;28;957;-60
2022/02/24 04:57:18;;;;;;;;;;;;;;;2.81;98.44;100163.38;5054430;28;831;-59
2022/02/24 04:59:45;;;;;;;;;;;;;;;2.82;98.67;100179.41;5054182;28;1894;-60
2022/02/24 05:02:11;;;;;;;;;;;;;;;2.88;98.46;100177.28;5054250;28;811;-60
2022/02/24 05:04:38;;;;;;;;;;;;;;;2.93;98.06;100174.31;5054326;28;991;-60
2022/02/24 05:07:04;;;;;;;;;;;;;;;3.00;97.28;100179.19;5054426;28;826;-59
2022/02/24 05:09:31;;;;;;;;;;;;;;;3.00;97.79;100190.09;5054310;28;882;-60
2022/02/24 05:11:58;;;;;;;;;;;;;;;3.02;97.13;100191.34;5054282;28;900;-60
2022/02/24 05:14:24;;;;;;;;;;;;;;;3.05;97.46;100195.31;5054467;28;814;-59
2022/02/24 05:16:51;;;;;;;;;;;;;;;3.06;97.29;100192.25;5054200;28;883;-60
2022/02/24 05:19:17;;;;;;;;;;;;;;;3.12;96.56;100192.06;5053883;28;1898;-60
2022/02/24 05:21:43;;;;;;;;;;;;;;;3.12;96.42;100202.97;5053843;28;870;-60
2022/02/24 05:24:10;;;;;;;;;;;;;;;3.20;96.47;100207.50;5053821;28;858;-60
2022/02/24 05:26:37;;;;;;;;;;;;;;;3.26;96.33;100204.22;5053766;28;913;-58
2022/02/24 05:29:04;;;;;;;;;;;;;;;3.27;95.39;100216.72;5053683;28;882;-58
2022/02/24 05:31:31;;;;;;;;;;;;;;;3.30;95.29;100219.91;5053654;28;863;-60
2022/02/24 05:33:57;;;;;;;;;;;;;;;3.36;95.36;100216.59;5053706;28;846;-60
2022/02/24 05:36:23;;;;;;;;;;;;;;;3.41;95.33;100221.81;5053711;28;890;-60
2022/02/24 05:38:51;;;;;;;;;;;;;;;3.37;94.76;100220.94;5053408;28;1494;-59
2022/02/24 05:41:18;;;;;;;;;;;;;;;3.39;94.53;100232.31;5052684;28;2029;-60
2022/02/24 05:43:44;;;;;;;;;;;;;;;3.47;94.91;100230.59;5053403;28;811;-60
2022/02/24 05:46:10;;;;;;;;;;;;;;;3.50;94.11;100238.13;5053478;28;819;-60
2022/02/24 05:48:37;;;;;;;;;;;;;;;3.55;94.11;100234.34;5053400;28;879;-59
2022/02/24 05:51:04;;;;;;;;;;;;;;;3.61;94.03;100244.69;5053342;28;970;-60
2022/02/24 05:53:31;;;;;;;;;;;;;;;3.67;93.85;100250.72;5053291;28;953;-60
2022/02/24 05:55:57;;;;;;;;;;;;;;;3.64;93.18;100245.94;5053281;28;866;-60
2022/02/24 05:58:24;;;;;;;;;;;;;;;3.66;93.27;100241.72;5053275;28;882;-60
2022/02/24 06:00:50;;;;;;;;;;;;;;;3.63;92.68;100253.34;5053028;28;1886;-60
2022/02/24 06:03:17;;;;;;;;;;;;;;;3.59;92.72;100248.91;5053127;28;869;-60
2022/02/24 06:05:43;;;;;;;;;;;;;;;3.61;92.89;100243.91;5053109;28;856;-60
2022/02/24 06:08:10;;;;;;;;;;;;;;;3.64;93.42;100246.72;5053021;28;851;-60
2022/02/24 06:10:36;;;;;;;;;;;;;;;3.68;92.88;100257.78;5052955;28;811;-60
2022/02/24 06:13:03;;;;;;;;;;;;;;;3.64;92.32;100245.94;5051797;28;1333;-60
2022/02/24 06:15:30;;;;;;;;;;;;;;;3.63;92.07;100244.34;5052854;28;795;-60
2022/02/24 06:17:56;;;;;;;;;;;;;;;3.63;91.91;100239.69;5053155;28;918;-60
2022/02/24 06:20:23;;;;;;;;;;;;;;;3.70;92.34;100236.34;5052719;28;1878;-61
2022/02/24 06:22:49;;;;;;;;;;;;;;;3.74;91.58;100239.22;5052714;28;857;-60
2022/02/24 06:25:16;;;;;;;;;;;;;;;3.78;91.80;100248.31;5052724;28;867;-60
2022/02/24 06:27:42;;;;;;;;;;;;;;;3.82;91.45;100250.00;5052646;28;873;-60
2022/02/24 06:30:09;;;;;;;;;;;;;;;3.86;90.42;100255.56;5052526;28;843;-60
2022/02/24 06:32:37;;;;;;;;;;;;;;;3.88;90.90;100245.06;5051317;28;1368;-60
2022/02/24 06:35:05;;;;;;;;;;;;;;;3.83;90.26;100248.06;5052461;28;898;-60
2022/02/24 06:37:31;;;;;;;;;;;;;;;3.79;91.00;100258.09;5052305;28;1241;-60
2022/02/24 06:39:58;;;;;;;;;;;;;;;3.81;90.43;100253.06;5052418;28;1914;-60
2022/02/24 06:42:24;;;;;;;;;;;;;;;3.82;90.29;100258.22;5052361;28;832;-60
2022/02/24 06:44:50;;;;;;;;;;;;;;;3.85;89.63;100265.72;5052342;28;889;-60
2022/02/24 06:47:17;;;;;;;;;;;;;;;3.95;90.26;100258.16;5052313;28;803;-60
2022/02/24 06:49:43;;;;;;;;;;;;;;;3.96;89.59;100246.88;5052262;28;866;-60
2022/02/24 06:52:10;;;;;;;;;;;;;;;3.97;89.71;100258.59;5052146;28;1005;-60
2022/02/24 06:54:37;;;;;;;;;;;;;;;3.94;88.89;100248.38;5052125;28;913;-60
2022/02/24 06:57:06;;;;;;;;;;;;;;;3.96;89.68;100240.63;5050835;28;1314;-60
2022/02/24 06:59:33;;;;;;;;;;;;;;;4.11;88.74;100248.09;5052158;28;1886;-60
2022/02/24 07:02:00;;;;;;;;;;;;;;;4.15;89.00;100248.97;5052108;28;866;-60
2022/02/24 07:04:26;;;;;;;;;;;;;;;4.21;87.66;100219.44;5051954;28;806;-60
2022/02/24 07:06:54;;;;;;;;;;;;;;;4.33;87.96;100254.94;5051952;28;937;-60
2022/02/24 07:09:22;;;;;;;;;;;;;;;4.49;87.31;100255.00;5051836;28;806;-60
2022/02/24 07:11:49;;;;;;;;;;;;;;;4.59;86.71;100259.97;5051900;28;898;-60
2022/02/24 07:14:15;;;;;;;;;;;;;;;4.60;85.49;100247.06;5051797;28;811;-60
2022/02/24 07:16:41;;;;;;;;;;;;;;;4.55;86.21;100248.13;5051786;28;866;-58
2022/02/24 07:19:07;;;;;;;;;;;;;;;4.51;85.97;100252.69;5051726;28;1967;-60
2022/02/24 07:21:35;;;;;;;;;;;;;;;4.49;86.38;100261.25;5051848;28;1085;-60
2022/02/24 07:24:01;;;;;;;;;;;;;;;4.53;86.23;100253.16;5051697;28;832;-59
2022/02/24 07:26:27;;;;;;;;;;;;;;;4.60;86.13;100261.53;5051536;28;903;-58
2022/02/24 07:28:54;;;;;;;;;;;;;;;4.52;85.37;100269.91;5051618;28;795;-60
2022/02/24 07:31:21;;;;;;;;;;;;;;;4.50;86.12;100265.59;5051552;28;827;-59
2022/02/24 07:33:48;;;;;;;;;;;;;;;4.50;85.35;100271.06;5051580;28;803;-58
2022/02/24 07:36:15;;;;;;;;;;;;;;;4.57;85.35;100267.72;5051492;28;906;-59
2022/02/24 07:38:42;;;;;;;;;;;;;;;4.46;84.78;100280.34;5051333;28;1263;-60
2022/02/24 07:41:09;;;;;;;;;;;;;;;4.40;85.63;100277.03;5051661;28;1922;-60
2022/02/24 07:43:36;;;;;;;;;;;;;;;4.46;85.97;100275.66;5051495;28;799;-60
2022/02/24 07:46:02;;;;;;;;;;;;;;;4.57;85.84;100275.94;5051528;28;847;-60
2022/02/24 07:48:29;;;;;;;;;;;;;;;4.61;86.08;100284.22;5051339;28;842;-60
2022/02/24 07:50:55;;;;;;;;;;;;;;;4.85;85.00;100280.56;5051391;28;866;-60
2022/02/24 07:53:22;;;;;;;;;;;;;;;5.03;83.77;100273.59;5051644;28;894;-60
2022/02/24 07:55:49;;;;;;;;;;;;;;;4.97;83.92;100274.22;5051334;28;824;-60
2022/02/24 07:58:15;;;;;;;;;;;;;;;5.00;84.16;100288.00;5051254;28;842;-60
2022/02/24 08:00:45;;;;;;;;;;;;;;;4.97;84.20;100287.91;5051247;28;1894;-60
2022/02/24 08:03:11;;;;;;;;;;;;;;;5.05;83.48;100282.25;5051227;28;983;-60
2022/02/24 08:05:37;;;;;;;;;;;;;;;4.91;83.50;100303.81;5055370;28;851;-59
2022/02/24 08:08:03;;;;;;;;;;;;;;;4.77;83.79;100296.00;5055339;28;876;-60
2022/02/24 08:10:30;;;;;;;;;;;;;;;4.69;85.34;100297.78;5055333;28;894;-60
2022/02/24 08:12:57;;;;;;;;;;;;;;;4.65;84.32;100302.38;5055156;28;894;-60
2022/02/24 08:15:23;;;;;;;;;;;;;;;4.62;84.74;100305.78;5055240;28;838;-60
2022/02/24 08:17:52;;;;;;;;;;;;;;;4.63;85.00;100304.66;5055182;28;1007;-59
2022/02/24 08:20:18;;;;;;;;;;;;;;;4.66;85.57;100312.16;5054919;28;1977;-60
2022/02/24 08:22:47;;;;;;;;;;;;;;;4.68;85.49;100295.38;5055097;28;851;-60
2022/02/24 08:25:15;;;;;;;;;;;;;;;4.65;84.78;100288.69;5054867;28;843;-59
2022/02/24 08:27:44;;;;;;;;;;;;;;;4.75;84.93;100298.31;5054940;28;886;-60
2022/02/24 08:30:12;;;;;;;;;;;;;;;4.99;84.79;100297.34;5054939;28;917;-59
2022/02/24 08:32:40;;;;;;;;;;;;;;;5.10;83.62;100303.13;5054746;28;878;-59
2022/02/24 08:35:10;;;;;;;;;;;;;;;5.15;84.27;100288.38;5054878;28;863;-60
2022/02/24 08:37:37;;;;;;;;;;;;;;;4.96;82.75;100298.06;5054514;28;1358;-59
2022/02/24 08:40:06;;;;;;;;;;;;;;;4.86;83.31;100295.84;5054797;28;1981;-59
2022/02/24 08:42:33;;;;;;;;;;;;;;;5.00;83.01;100295.44;5054642;28;894;-59
2022/02/24 08:45:00;;;;;;;;;;;;;;;5.10;82.66;100297.66;5054733;28;846;-59
2022/02/24 08:47:26;;;;;;;;;;;;;;;4.97;82.61;100304.34;5054534;28;851;-59
2022/02/24 08:49:52;;;;;;;;;;;;;;;4.97;82.66;100307.91;5054607;28;885;-59
2022/02/24 08:52:19;;;;;;;;;;;;;;;5.10;82.57;100323.09;5054651;28;850;-60
2022/02/24 08:54:46;;;;;;;;;;;;;;;4.99;82.24;100323.97;5054378;28;836;-60
2022/02/24 08:57:13;;;;;;;;;;;;;;;5.02;83.55;100324.06;5054276;28;912;-60
2022/02/24 08:59:39;;;;;;;;;;;;;;;5.02;82.28;100320.53;5054375;28;1894;-59
2022/02/24 09:02:06;;;;;;;;;;;;;;;4.97;82.08;100320.78;5054219;28;881;-60
2022/02/24 09:04:32;;;;;;;;;;;;;;;4.95;82.43;100342.25;5054279;28;839;-60
2022/02/24 09:06:58;;;;;;;;;;;;;;;4.95;82.45;100343.06;5054240;28;936;-60
2022/02/24 09:09:25;;;;;;;;;;;;;;;4.99;81.71;100338.44;5054175;28;906;-60
2022/02/24 09:11:51;;;;;;;;;;;;;;;4.97;82.03;100339.97;5054161;28;831;-60
2022/02/24 09:14:18;;;;;;;;;;;;;;;5.03;82.13;100357.72;5053988;28;1027;-60
2022/02/24 09:16:44;;;;;;;;;;;;;;;5.11;81.87;100348.56;5053011;28;1035;-59
2022/02/24 09:19:11;;;;;;;;;;;;;;;5.14;82.43;100363.50;5053948;28;1894;-59
2022/02/24 09:21:39;;;;;;;;;;;;;;;5.03;81.80;100361.25;5053973;28;823;-60
2022/02/24 09:24:05;;;;;;;;;;;;;;;4.96;81.68;100358.34;5053917;28;882;-59
2022/02/24 09:26:33;;;;;;;;;;;;;;;4.95;82.25;100359.50;5053809;28;867;-59
2022/02/24 09:29:00;;;;;;;;;;;;;;;4.94;81.70;100368.84;5053774;28;849;-59
2022/02/24 09:31:27;;;;;;;;;;;;;;;4.92;81.68;100360.19;5053789;28;839;-59
2022/02/24 09:33:53;;;;;;;;;;;;;;;4.91;80.79;100364.88;5053767;28;863;-59
2022/02/24 09:36:20;;;;;;;;;;;;;;;4.98;81.96;100364.25;5053732;28;814;-59
2022/02/24 09:38:46;;;;;;;;;;;;;;;5.11;81.79;100362.25;5053551;28;1752;-60
2022/02/24 09:41:14;;;;;;;;;;;;;;;5.11;81.59;100365.78;5053434;28;2028;-58
2022/02/24 09:43:41;;;;;;;;;;;;;;;5.22;79.92;100362.53;5053545;28;850;-59
2022/02/24 09:46:08;;;;;;;;;;;;;;;5.29;80.06;100362.69;5053502;28;850;-59
2022/02/24 09:48:36;;;;;;;;;;;;;;;5.24;79.25;100369.25;5053646;28;912;-59
2022/02/24 09:51:05;;;;;;;;;;;;;;;5.18;80.75;100364.38;5053624;28;969;-59
2022/02/24 09:53:34;;;;;;;;;;;;;;;5.04;80.78;100364.81;5053673;28;814;-59
2022/02/24 09:56:02;;;;;;;;;;;;;;;4.93;81.88;100367.28;5053163;28;893;-59
2022/02/24 09:58:28;;;;;;;;;;;;;;;4.96;81.89;100371.25;5053468;28;841;-60
2022/02/24 10:01:04;;;;;;;;;;;;;;;4.93;81.81;100377.41;5053155;28;1948;-59
2022/02/24 10:03:32;;;;;;;;;;;;;;;4.96;82.58;100385.75;5053475;28;898;-60
2022/02/24 10:05:59;;;;;;;;;;;;;;;4.93;81.60;100375.50;5053228;28;879;-59
2022/02/24 10:08:35;;;;;;;;;;;;;;;5.08;82.49;100371.97;5053210;28;847;-59
2022/02/24 10:11:03;;;;;;;;;;;;;;;5.37;81.92;100369.16;5053050;28;890;-59
2022/02/24 10:13:29;;;;;;;;;;;;;;;5.33;80.36;100369.06;5052843;28;1061;-59
2022/02/24 10:15:57;;;;;;;;;;;;;;;5.40;80.92;100363.78;5052921;28;898;-59
2022/02/24 10:18:25;;;;;;;;;;;;;;;5.36;80.55;100351.94;5053232;28;1209;-59
2022/02/24 10:20:56;;;;;;;;;;;;;;;5.50;80.37;100346.81;5052821;28;1882;-59
2022/02/24 10:23:31;;;;;;;;;;;;;;;5.59;79.38;100348.53;5052805;28;854;-59
2022/02/24 10:26:00;;;;;;;;;;;;;;;5.43;79.33;100343.09;5051240;28;867;-58
2022/02/24 10:28:30;;;;;;;;;;;;;;;5.34;79.35;100351.50;5052579;28;896;-58
2022/02/24 10:30:56;;;;;;;;;;;;;;;5.30;78.33;100339.63;5052690;28;877;-57
2022/02/24 10:33:28;;;;;;;;;;;;;;;5.27;78.72;100349.38;5052535;28;941;-59
2022/02/24 10:35:56;;;;;;;;;;;;;;;5.26;79.49;100349.72;5052587;28;900;-59
2022/02/24 10:38:27;;;;;;;;;;;;;;;5.41;78.20;100329.72;5052166;28;1291;-59
2022/02/24 10:40:56;;;;;;;;;;;;;;;5.34;77.65;100337.00;5052387;28;1973;-58
2022/02/24 10:43:24;;;;;;;;;;;;;;;5.38;78.28;100338.66;5052293;28;918;-59
2022/02/24 10:45:59;;;;;;;;;;;;;;;5.48;78.97;100331.84;5051524;28;1509;-59
2022/02/24 10:48:26;;;;;;;;;;;;;;;5.57;78.49;100337.13;5052250;28;803;-59
2022/02/24 10:51:05;;;;;;;;;;;;;;;5.57;77.28;100332.47;5052250;28;870;-59
2022/02/24 10:53:33;;;;;;;;;;;;;;;5.53;76.85;100340.59;5052106;28;985;-58
2022/02/24 10:55:59;;;;;;;;;;;;;;;5.55;77.74;100332.03;5052095;28;1377;-59
2022/02/24 10:58:27;;;;;;;;;;;;;;;5.50;76.61;100327.63;5052078;28;910;-59
2022/02/24 11:01:12;;;;;;;;;;;;;;;5.49;77.54;100326.00;5052007;28;1890;-59
2022/02/24 11:03:40;;;;;;;;;;;;;;;5.58;77.62;100314.84;5052070;28;822;-59
2022/02/24 11:06:07;;;;;;;;;;;;;;;5.80;76.47;100313.38;5051915;28;909;-59
2022/02/24 11:08:35;;;;;;;;;;;;;;;5.82;76.40;100308.34;5051927;28;855;-59
2022/02/24 11:11:02;;;;;;;;;;;;;;;5.73;75.21;100316.75;5051913;28;810;-59
2022/02/24 11:13:29;;;;;;;;;;;;;;;5.60;75.77;100306.28;5051873;28;800;-58
2022/02/24 11:15:56;;;;;;;;;;;;;;;5.53;75.76;100315.91;5051780;28;795;-59
2022/02/24 11:18:23;;;;;;;;;;;;;;;5.49;75.70;100336.97;5052229;28;931;-58
2022/02/24 11:20:51;;;;;;;;;;;;;;;5.51;76.01;100310.00;5051981;28;1941;-58
2022/02/24 11:23:17;;;;;;;;;;;;;;;5.59;75.09;100307.41;5051735;28;870;-58
2022/02/24 11:25:54;;;;;;;;;;;;;;;5.60;76.33;100311.75;5051852;28;1094;-58
2022/02/24 11:28:22;;;;;;;;;;;;;;;5.60;75.73;100320.00;5051789;28;807;-58
2022/02/24 11:30:52;;;;;;;;;;;;;;;5.77;77.43;100310.59;5051630;28;885;-58
2022/02/24 11:33:17;;;;;;;;;;;;;;;5.86;73.82;100300.97;5051593;28;819;-59
2022/02/24 11:35:44;;;;;;;;;;;;;;;5.75;73.86;100307.41;5051491;28;848;-58
2022/02/24 11:38:15;;;;;;;;;;;;;;;5.76;74.55;100289.78;5050621;28;1492;-58
2022/02/24 11:40:41;;;;;;;;;;;;;;;5.88;74.20;100301.41;5051338;28;1980;-58
2022/02/24 11:43:11;;;;;;;;;;;;;;;5.83;73.60;100298.97;5051392;28;882;-58
2022/02/24 11:45:47;;;;;;;;;;;;;;;5.90;74.07;100298.31;5051371;28;924;-58
2022/02/24 11:48:13;;;;;;;;;;;;;;;5.79;71.85;100283.59;5051468;28;815;-58
2022/02/24 11:50:41;;;;;;;;;;;;;;;5.78;73.54;100290.22;5051326;28;866;-58
2022/02/24 11:53:09;;;;;;;;;;;;;;;5.69;73.09;100304.91;5051479;28;906;-58
2022/02/24 11:55:44;;;;;;;;;;;;;;;5.77;72.77;100280.41;5051350;28;889;-57
2022/02/24 11:58:29;;;;;;;;;;;;;;;5.76;73.31;100251.38;5051381;28;830;-58
2022/02/24 12:01:10;;;;;;;;;;;;;;;5.73;72.69;100274.84;5051223;28;1954;-58
2022/02/24 12:03:46;;;;;;;;;;;;;;;5.76;72.83;100285.09;5050123;28;844;-58
2022/02/24 12:06:16;;;;;;;;;;;;;;;5.73;72.63;100275.63;5051251;28;882;-58
2022/02/24 12:09:01;;;;;;;;;;;;;;;5.78;72.87;100271.00;5051175;28;904;-58
2022/02/24 12:11:28;;;;;;;;;;;;;;;5.71;71.91;100301.81;5049906;28;1635;-58
2022/02/24 12:13:54;;;;;;;;;;;;;;;5.63;72.35;100276.19;5051170;28;829;-58
2022/02/24 12:16:23;;;;;;;;;;;;;;;5.61;73.00;100285.91;5051109;28;875;-58
2022/02/24 12:18:51;;;;;;;;;;;;;;;5.66;73.29;100291.13;5051183;28;806;-58
2022/02/24 12:21:33;;;;;;;;;;;;;;;5.71;72.09;100272.44;5051046;28;1953;-58
2022/02/24 12:24:00;;;;;;;;;;;;;;;5.76;71.71;100262.34;5050987;28;870;-58
2022/02/24 12:26:44;;;;;;;;;;;;;;;5.79;70.53;100261.66;5051121;28;803;-58
2022/02/24 12:29:29;;;;;;;;;;;;;;;5.77;70.34;100255.72;5051069;28;799;-59
2022/02/24 12:31:57;;;;;;;;;;;;;;;5.79;70.32;100261.66;5051315;28;823;-59
2022/02/24 12:34:26;;;;;;;;;;;;;;;5.89;69.61;100255.59;5051053;28;830;-59
2022/02/24 12:37:13;;;;;;;;;;;;;;;5.92;71.12;100266.63;5050560;28;1292;-58
2022/02/24 12:39:41;;;;;;;;;;;;;;;5.91;69.59;100254.06;5050841;28;1914;-58
2022/02/24 12:42:11;;;;;;;;;;;;;;;5.88;69.19;100254.00;5066364;28;898;-58
2022/02/24 12:44:40;;;;;;;;;;;;;;;5.85;68.73;100263.75;5050991;28;823;-59
2022/02/24 12:47:06;;;;;;;;;;;;;;;6.05;69.10;100267.31;5050845;28;889;-59
2022/02/24 12:49:41;;;;;;;;;;;;;;;6.10;69.02;100258.81;5051460;28;842;-58
2022/02/24 12:52:08;;;;;;;;;;;;;;;6.09;68.90;100257.22;5054436;28;811;-59
2022/02/24 12:54:35;;;;;;;;;;;;;;;6.13;68.50;100257.28;5054375;28;938;-57
2022/02/24 12:57:01;;;;;;;;;;;;;;;6.21;67.43;100255.47;5054385;28;918;-58
2022/02/24 12:59:28;;;;;;;;;;;;;;;6.36;68.23;100243.63;5054340;28;1977;-58
2022/02/24 13:01:55;;;;;;;;;;;;;;;6.47;67.72;100239.13;5054398;28;854;-58
2022/02/24 13:04:21;;;;;;;;;;;;;;;6.73;68.98;100241.16;5054220;28;899;-58
2022/02/24 13:06:48;;;;;;;;;;;;;;;6.74;67.63;100239.19;5054260;28;878;-58
2022/02/24 13:12:09;;;;;;;;;;;;;;;6.47;67.15;100236.38;5054487;28;626;-58
2022/02/24 13:14:39;;;;;;;;;;;;;;;6.45;66.33;100235.16;5054470;28;1946;-58
2022/02/24 13:17:08;;;;;;;;;;;;;;;6.46;67.28;100225.75;5069175;28;943;-59
2022/02/24 13:19:36;;;;;;;;;;;;;;;6.45;66.80;100227.72;5054143;28;1890;-59
2022/02/24 13:22:03;;;;;;;;;;;;;;;6.62;66.43;100225.66;5053830;28;932;-58
2022/02/24 13:24:32;;;;;;;;;;;;;;;6.67;64.64;100225.34;5053895;28;851;-58
2022/02/24 13:26:58;;;;;;;;;;;;;;;6.69;65.10;100229.31;5053845;28;898;-58
2022/02/24 13:29:25;;;;;;;;;;;;;;;6.73;64.44;100224.69;5053906;28;869;-58
2022/02/24 13:32:09;;;;;;;;;;;;;;;6.76;64.11;100225.91;5053742;28;799;-58
2022/02/24 13:34:39;;;;;;;;;;;;;;;6.74;65.86;100211.72;5053956;28;838;-58